Time;durP1;ratioP1;P1;durP2;ratioP2;P2;SDS_P1;SDS_P2;PMS_P1;PMS_P2;Temp;Humidity;BMP_temperature;BMP_pressure;BME280_temperature;BME280_humidity;BME280_pressure;Samples;Min_cycle;Max_cycle;Signal;HPM_P1;HPM_P2
2023/10/20 00:00:26;;;;;;;21.47;19.37;;;6.70;84.20;;;;;;6229603;28;20238;-83
2023/10/20 00:03:29;;;;;;;21.50;19.30;;;6.70;84.20;;;;;;6227478;28;20247;-82
2023/10/20 00:06:33;;;;;;;21.53;19.43;;;6.70;84.20;;;;;;6229403;28;20252;-82
2023/10/20 00:09:36;;;;;;;20.80;18.87;;;6.80;84.20;;;;;;6231879;28;20270;-82
2023/10/20 00:12:41;;;;;;;22.20;19.90;;;6.80;84.20;;;;;;6248759;28;20709;-82
2023/10/20 00:15:46;;;;;;;21.87;19.63;;;6.70;84.20;;;;;;6229007;28;20246;-83
2023/10/20 00:18:50;;;;;;;21.90;19.70;;;6.70;84.20;;;;;;6237986;28;20614;-83
2023/10/20 00:21:54;;;;;;;21.80;19.73;;;6.70;84.20;;;;;;6241208;28;20242;-83
2023/10/20 00:24:57;;;;;;;21.17;19.17;;;6.70;84.20;;;;;;6227746;28;20270;-82
2023/10/20 00:28:00;;;;;;;20.53;18.53;;;6.70;84.20;;;;;;6225658;28;20436;-85
2023/10/20 00:31:06;;;;;;;21.80;19.50;;;6.80;84.00;;;;;;6225309;28;20235;-84
2023/10/20 00:34:09;;;;;;;20.17;18.10;;;6.80;84.00;;;;;;6218882;28;20239;-83
2023/10/20 00:37:12;;;;;;;19.30;17.60;;;6.80;83.90;;;;;;6232343;28;20230;-84
2023/10/20 00:40:16;;;;;;;20.80;18.77;;;6.70;84.00;;;;;;6225734;28;20738;-83
2023/10/20 00:43:21;;;;;;;19.83;17.93;;;6.70;84.10;;;;;;6235890;28;20243;-83
2023/10/20 00:46:26;;;;;;;19.97;18.03;;;6.70;84.10;;;;;;6228422;28;20245;-82
2023/10/20 00:49:29;;;;;;;20.53;18.37;;;6.70;84.10;;;;;;6210298;28;20254;-83
2023/10/20 00:52:35;;;;;;;20.20;18.10;;;6.70;84.10;;;;;;6234049;28;20239;-82
2023/10/20 00:55:41;;;;;;;21.10;18.97;;;6.70;84.20;;;;;;6228839;28;20243;-82
2023/10/20 00:58:48;;;;;;;20.13;18.23;;;6.70;84.20;;;;;;6236168;28;20693;-86
2023/10/20 01:01:52;;;;;;;20.73;18.73;;;6.70;84.20;;;;;;6239033;28;20240;-82
2023/10/20 01:04:58;;;;;;;20.87;18.77;;;6.70;84.20;;;;;;6234281;28;20230;-81
2023/10/20 01:08:01;;;;;;;21.07;19.07;;;6.70;84.20;;;;;;6229916;28;20811;-82
2023/10/20 01:11:05;;;;;;;20.10;18.17;;;6.70;84.40;;;;;;6227475;28;20234;-84
2023/10/20 01:14:09;;;;;;;19.90;17.90;;;6.70;84.50;;;;;;6217532;28;20593;-82
2023/10/20 01:17:14;;;;;;;20.93;18.90;;;6.70;84.50;;;;;;6231130;28;20281;-82
2023/10/20 01:20:17;;;;;;;20.00;18.20;;;6.70;84.70;;;;;;6225778;28;20234;-83
2023/10/20 01:23:20;;;;;;;20.47;18.53;;;6.70;84.70;;;;;;6231717;28;20447;-79
2023/10/20 01:26:25;;;;;;;19.73;17.83;;;6.70;84.90;;;;;;6222627;28;20234;-82
2023/10/20 01:29:31;;;;;;;19.30;17.60;;;6.70;84.80;;;;;;6227541;28;20245;-80
2023/10/20 01:32:35;;;;;;;18.33;16.73;;;6.70;84.90;;;;;;6214540;28;20290;-83
2023/10/20 01:35:38;;;;;;;17.67;16.07;;;6.70;84.80;;;;;;6218561;28;20706;-83
2023/10/20 01:38:44;;;;;;;19.90;18.00;;;6.70;84.90;;;;;;6238780;28;20624;-83
2023/10/20 01:41:48;;;;;;;18.50;16.50;;;6.70;85.00;;;;;;6222402;28;20246;-82
2023/10/20 01:44:52;;;;;;;17.57;15.97;;;6.70;85.10;;;;;;6236900;28;20238;-83
2023/10/20 01:47:55;;;;;;;17.00;15.50;;;6.70;85.00;;;;;;6238572;28;20238;-81
2023/10/20 01:51:00;;;;;;;16.63;15.23;;;6.70;85.00;;;;;;6248143;28;20722;-83
2023/10/20 01:54:04;;;;;;;16.40;14.90;;;6.70;85.00;;;;;;6258783;28;20760;-84
2023/10/20 01:57:08;;;;;;;17.03;15.53;;;6.70;85.00;;;;;;6251278;28;20258;-84
2023/10/20 02:00:14;;;;;;;15.80;14.50;;;6.70;85.10;;;;;;6247117;28;20235;-82
2023/10/20 02:03:18;;;;;;;15.97;14.47;;;6.80;85.20;;;;;;6262577;28;20280;-83
2023/10/20 02:06:22;;;;;;;15.30;13.83;;;6.80;85.20;;;;;;6245154;28;20289;-83
2023/10/20 02:09:25;;;;;;;14.47;13.13;;;6.80;85.10;;;;;;6243708;28;20804;-84
2023/10/20 02:12:30;;;;;;;14.30;13.17;;;6.80;85.20;;;;;;6230463;28;20805;-83
2023/10/20 02:15:33;;;;;;;14.70;13.50;;;6.80;85.10;;;;;;6225278;28;20798;-85
2023/10/20 02:18:36;;;;;;;13.67;12.57;;;6.80;85.20;;;;;;6218996;28;20242;-82
2023/10/20 02:21:40;;;;;;;13.90;12.70;;;6.80;85.20;;;;;;6241884;28;20626;-83
2023/10/20 02:24:47;;;;;;;13.33;12.30;;;6.80;85.30;;;;;;6215119;28;20239;-82
2023/10/20 02:27:52;;;;;;;12.10;11.10;;;6.80;85.30;;;;;;6224901;28;20234;-80
2023/10/20 02:30:56;;;;;;;13.87;12.77;;;6.70;85.50;;;;;;6247569;28;20325;-84
2023/10/20 02:34:00;;;;;;;13.27;12.17;;;6.70;85.60;;;;;;6248267;28;20734;-85
2023/10/20 02:37:03;;;;;;;12.40;11.40;;;6.80;85.60;;;;;;6234385;28;20238;-82
2023/10/20 02:40:07;;;;;;;11.20;10.30;;;6.80;85.60;;;;;;6244124;28;21465;-82
2023/10/20 02:43:12;;;;;;;11.37;10.37;;;6.80;85.30;;;;;;6241586;28;20233;-79
2023/10/20 02:46:18;;;;;;;10.60;9.73;;;6.70;85.30;;;;;;6253661;28;20226;-84
2023/10/20 02:49:21;;;;;;;10.43;9.63;;;6.70;85.30;;;;;;6265201;28;20241;-84
2023/10/20 02:52:26;;;;;;;9.27;8.67;;;6.70;85.30;;;;;;6234234;28;20238;-85
2023/10/20 02:55:29;;;;;;;10.03;9.33;;;6.70;85.30;;;;;;6246704;28;20242;-84
2023/10/20 02:58:33;;;;;;;8.87;8.27;;;6.70;85.20;;;;;;6253799;28;20240;-80
2023/10/20 03:01:37;;;;;;;9.57;8.93;;;6.60;85.30;;;;;;6242211;28;20238;-82
2023/10/20 03:04:40;;;;;;;8.87;8.30;;;6.60;85.10;;;;;;6256766;28;20333;-78
2023/10/20 03:07:45;;;;;;;8.60;8.10;;;6.60;85.20;;;;;;6253188;28;20852;-86
2023/10/20 03:10:48;;;;;;;8.87;8.37;;;6.60;85.10;;;;;;6224018;28;20323;-82
2023/10/20 03:13:53;;;;;;;9.33;8.43;;;6.60;85.00;;;;;;6232575;28;20312;-83
2023/10/20 03:16:56;;;;;;;8.20;7.57;;;6.60;84.90;;;;;;6230953;28;20916;-84
2023/10/20 03:19:59;;;;;;;8.37;7.87;;;6.60;84.90;;;;;;6237631;28;20237;-79
2023/10/20 03:23:05;;;;;;;8.53;7.93;;;6.60;84.80;;;;;;6229337;28;20230;-83
2023/10/20 03:26:11;;;;;;;8.60;8.10;;;6.60;84.70;;;;;;6227120;28;20365;-83
2023/10/20 03:29:16;;;;;;;9.23;8.53;;;6.50;84.70;;;;;;6216043;28;20254;-82
2023/10/20 03:32:19;;;;;;;9.03;8.43;;;6.50;84.60;;;;;;6227532;28;20242;-80
2023/10/20 03:35:23;;;;;;;9.23;8.53;;;6.50;84.60;;;;;;6226046;28;20240;-83
2023/10/20 03:38:26;;;;;;;8.53;7.83;;;6.40;84.40;;;;;;6232121;28;20238;-82
2023/10/20 03:41:35;;;;;;;8.93;8.27;;;6.40;84.50;;;;;;6225793;28;20228;-82
2023/10/20 03:44:40;;;;;;;9.57;8.77;;;6.40;84.50;;;;;;6240767;28;20241;-85
2023/10/20 03:47:44;;;;;;;9.30;8.60;;;6.40;84.50;;;;;;6241822;28;20263;-80
2023/10/20 03:50:48;;;;;;;9.40;8.80;;;6.40;84.20;;;;;;6255839;28;20235;-81
2023/10/20 03:53:52;;;;;;;9.37;8.67;;;6.40;84.20;;;;;;6235187;28;20246;-83
2023/10/20 03:56:57;;;;;;;9.33;8.73;;;6.30;84.20;;;;;;6241269;28;20231;-85
2023/10/20 04:00:17;;;;;;;9.10;8.43;;;6.40;84.20;;;;;;6235341;28;20758;-82
2023/10/20 04:03:20;;;;;;;8.83;8.23;;;6.30;84.20;;;;;;6230364;28;20278;-80
2023/10/20 04:06:23;;;;;;;10.57;9.43;;;6.40;84.30;;;;;;6255950;28;20244;-81
2023/10/20 04:09:29;;;;;;;9.20;8.57;;;6.30;84.40;;;;;;6225664;28;20655;-82
2023/10/20 04:12:32;;;;;;;9.37;8.63;;;6.30;84.20;;;;;;6234116;28;20242;-83
2023/10/20 04:15:37;;;;;;;9.23;8.60;;;6.30;84.20;;;;;;6234980;28;20243;-84
2023/10/20 04:18:40;;;;;;;9.27;8.50;;;6.30;84.40;;;;;;6214321;28;20370;-81
2023/10/20 04:21:44;;;;;;;10.33;9.53;;;6.30;84.40;;;;;;6223247;28;20270;-82
2023/10/20 04:24:48;;;;;;;9.47;8.87;;;6.30;84.20;;;;;;6222849;28;20321;-82
2023/10/20 04:27:57;;;;;;;10.40;9.60;;;6.30;84.20;;;;;;6214707;28;20317;-83
2023/10/20 04:48:15;;;;;;;9.67;9.07;;;6.20;83.50;;;;;;6254195;28;20309;-80
2023/10/20 04:51:28;;;;;;;10.83;9.93;;;6.20;83.40;;;;;;6239795;28;20739;-82
2023/10/20 04:54:44;;;;;;;11.00;10.20;;;6.20;83.60;;;;;;6252837;28;20234;-79
2023/10/20 04:57:52;;;;;;;10.37;9.60;;;6.20;83.70;;;;;;6238630;28;20230;-80
2023/10/20 05:01:04;;;;;;;10.30;9.50;;;6.20;83.70;;;;;;6246848;28;20726;-83
2023/10/20 05:04:15;;;;;;;10.80;9.93;;;6.20;83.70;;;;;;6238567;28;20593;-82
2023/10/20 05:07:26;;;;;;;10.70;9.80;;;6.20;83.50;;;;;;6226725;28;20227;-80
2023/10/20 05:10:29;;;;;;;10.63;9.73;;;6.10;83.50;;;;;;6236513;28;20234;-81
2023/10/20 05:13:33;;;;;;;11.37;10.47;;;6.10;83.70;;;;;;6233092;28;20258;-79
2023/10/20 05:16:36;;;;;;;10.90;10.00;;;6.10;83.50;;;;;;6235148;28;20333;-79
2023/10/20 05:19:40;;;;;;;11.07;9.97;;;6.10;83.50;;;;;;6232475;28;20869;-80
2023/10/20 05:22:43;;;;;;;11.83;10.83;;;6.10;83.60;;;;;;6234625;28;20618;-80
2023/10/20 05:25:48;;;;;;;10.83;9.73;;;6.10;83.70;;;;;;6228857;28;22957;-81
2023/10/20 05:28:51;;;;;;;10.97;10.10;;;6.00;83.80;;;;;;6234510;28;20234;-80
2023/10/20 05:31:54;;;;;;;11.67;10.67;;;6.10;83.90;;;;;;6223716;28;20257;-80
2023/10/20 05:35:00;;;;;;;11.53;10.63;;;6.10;83.90;;;;;;6239912;28;20330;-81
2023/10/20 05:38:03;;;;;;;11.23;10.33;;;6.10;83.90;;;;;;6241999;28;20245;-81
2023/10/20 05:41:06;;;;;;;11.97;10.93;;;6.10;83.70;;;;;;6244842;28;20237;-76
2023/10/20 05:44:12;;;;;;;12.03;11.03;;;6.10;83.30;;;;;;6233519;28;20234;-76
2023/10/20 05:47:15;;;;;;;13.60;11.13;;;6.10;83.30;;;;;;6236434;28;20434;-76
2023/10/20 05:50:20;;;;;;;11.80;10.80;;;6.00;83.50;;;;;;6216453;28;20235;-77
2023/10/20 05:53:23;;;;;;;12.63;11.53;;;6.00;83.70;;;;;;6236425;28;20242;-77
2023/10/20 05:56:26;;;;;;;13.03;11.63;;;5.90;83.90;;;;;;6239745;28;20320;-75
2023/10/20 05:59:29;;;;;;;12.73;11.63;;;5.90;83.90;;;;;;6248970;28;20235;-76
2023/10/20 06:02:34;;;;;;;12.93;11.83;;;5.90;83.90;;;;;;6247275;28;20261;-81
2023/10/20 06:05:39;;;;;;;13.30;11.97;;;5.90;84.00;;;;;;6239481;28;20291;-78
2023/10/20 06:08:42;;;;;;;13.03;11.93;;;5.90;84.00;;;;;;6237645;28;20234;-79
2023/10/20 06:11:45;;;;;;;14.23;12.87;;;5.80;83.90;;;;;;6234518;28;20231;-79
2023/10/20 06:14:49;;;;;;;13.33;12.13;;;5.90;84.00;;;;;;6235271;28;20231;-80
2023/10/20 06:17:52;;;;;;;14.37;13.07;;;5.90;84.00;;;;;;6237666;28;20231;-80
2023/10/20 06:20:57;;;;;;;14.33;12.80;;;5.80;84.10;;;;;;6229348;28;20230;-79
2023/10/20 06:24:00;;;;;;;13.27;12.07;;;5.90;83.90;;;;;;6229169;28;20239;-78
2023/10/20 06:27:04;;;;;;;13.47;12.30;;;5.80;83.90;;;;;;6236641;28;20649;-79
2023/10/20 06:30:23;;;;;;;13.93;12.73;;;5.80;83.90;;;;;;6233715;28;20242;-78
2023/10/20 06:33:32;;;;;;;14.27;12.73;;;5.80;83.80;;;;;;6229519;28;20242;-80
2023/10/20 06:36:38;;;;;;;13.13;11.93;;;5.80;83.80;;;;;;6241707;28;20230;-78
2023/10/20 06:39:44;;;;;;;14.13;12.70;;;5.80;83.70;;;;;;6237713;28;20508;-77
2023/10/20 06:42:47;;;;;;;14.10;12.73;;;5.80;83.60;;;;;;6238946;28;20609;-77
2023/10/20 06:45:56;;;;;;;15.47;13.33;;;5.80;83.80;;;;;;6230134;28;20242;-77
2023/10/20 06:48:59;;;;;;;13.77;12.37;;;5.70;83.90;;;;;;6237535;28;20717;-79
2023/10/20 06:52:04;;;;;;;13.73;12.33;;;5.70;83.90;;;;;;6241329;28;20326;-79
2023/10/20 06:55:09;;;;;;;12.90;11.80;;;5.80;83.80;;;;;;6227625;28;20626;-79
2023/10/20 06:58:32;;;;;;;14.37;12.87;;;5.80;83.90;;;;;;6232794;28;21088;-77
2023/10/20 07:01:36;;;;;;;14.53;13.13;;;5.80;84.00;;;;;;6235263;28;20251;-78
2023/10/20 07:04:40;;;;;;;13.40;12.13;;;5.70;84.00;;;;;;6239503;28;20235;-77
2023/10/20 07:07:45;;;;;;;13.60;12.33;;;5.70;83.90;;;;;;6243141;28;20324;-79
2023/10/20 07:10:50;;;;;;;14.87;13.37;;;5.70;83.90;;;;;;6239152;28;20257;-80
2023/10/20 07:13:53;;;;;;;14.27;12.97;;;5.70;83.90;;;;;;6238224;28;20239;-80
2023/10/20 07:16:57;;;;;;;13.93;12.80;;;5.70;84.00;;;;;;6245417;28;20300;-80
2023/10/20 07:20:00;;;;;;;13.60;12.40;;;5.70;84.20;;;;;;6244668;28;20243;-79
2023/10/20 07:23:05;;;;;;;14.53;13.20;;;5.70;84.20;;;;;;6228573;28;20673;-79
2023/10/20 07:26:08;;;;;;;13.77;12.43;;;5.70;84.20;;;;;;6232636;28;20294;-80
2023/10/20 07:29:12;;;;;;;13.03;11.57;;;5.70;84.20;;;;;;6242351;28;20304;-78
2023/10/20 07:32:15;;;;;;;13.20;12.00;;;5.70;84.10;;;;;;6238802;28;20259;-77
2023/10/20 07:35:18;;;;;;;14.17;12.77;;;5.70;84.20;;;;;;6233963;28;20242;-78
2023/10/20 07:38:23;;;;;;;14.67;13.03;;;5.70;84.20;;;;;;6242310;28;20258;-78
2023/10/20 07:41:26;;;;;;;13.17;11.87;;;5.70;84.30;;;;;;6237271;28;20233;-78
2023/10/20 07:44:30;;;;;;;14.47;12.13;;;5.70;84.20;;;;;;6241551;28;20238;-78
2023/10/20 07:47:34;;;;;;;13.37;11.97;;;5.70;83.90;;;;;;6226105;28;20707;-77
2023/10/20 07:50:37;;;;;;;13.97;12.63;;;5.60;83.70;;;;;;6231377;28;22518;-79
2023/10/20 07:53:42;;;;;;;14.20;12.90;;;5.50;84.00;;;;;;6238937;28;20246;-79
2023/10/20 07:56:47;;;;;;;14.40;12.90;;;5.50;84.10;;;;;;6232365;28;20239;-78
2023/10/20 07:59:50;;;;;;;14.13;12.73;;;5.50;84.20;;;;;;6233846;28;20317;-77
2023/10/20 08:02:53;;;;;;;13.73;12.23;;;5.50;84.20;;;;;;6234664;28;20238;-81
2023/10/20 08:06:02;;;;;;;12.67;11.67;;;5.50;84.00;;;;;;6236674;28;20325;-78
2023/10/20 08:09:09;;;;;;;12.80;11.70;;;5.50;84.20;;;;;;6243075;28;20235;-80
2023/10/20 08:12:13;;;;;;;13.10;11.47;;;5.50;84.00;;;;;;6234324;28;20300;-79
2023/10/20 08:15:17;;;;;;;11.43;10.53;;;5.50;83.90;;;;;;6231454;28;20284;-81
2023/10/20 08:18:20;;;;;;;11.60;10.67;;;5.60;83.70;;;;;;6236367;28;20242;-81
2023/10/20 08:21:26;;;;;;;11.43;10.30;;;5.50;83.50;;;;;;6233975;28;20238;-80
2023/10/20 08:24:30;;;;;;;11.30;10.27;;;5.50;83.30;;;;;;6233526;28;20261;-78
2023/10/20 08:27:34;;;;;;;12.33;11.13;;;5.40;83.50;;;;;;6231453;28;20257;-80
2023/10/20 08:30:37;;;;;;;11.23;10.33;;;5.50;83.40;;;;;;6219474;28;20239;-78
2023/10/20 08:33:40;;;;;;;10.40;9.57;;;5.50;83.50;;;;;;6225674;28;20249;-76
2023/10/20 08:36:43;;;;;;;10.40;9.60;;;5.50;83.30;;;;;;6236325;28;20932;-80
2023/10/20 08:39:48;;;;;;;10.83;9.93;;;5.50;83.30;;;;;;6229421;28;20278;-76
2023/10/20 08:42:51;;;;;;;9.93;9.03;;;5.50;83.00;;;;;;6236759;28;20943;-79
2023/10/20 08:45:55;;;;;;;10.17;9.47;;;5.50;82.80;;;;;;6230509;28;20239;-78
2023/10/20 08:48:59;;;;;;;10.70;9.77;;;5.50;82.90;;;;;;6240395;28;20633;-81
2023/10/20 08:52:05;;;;;;;10.67;9.67;;;5.50;83.00;;;;;;6232589;28;20322;-81
2023/10/20 08:55:10;;;;;;;10.93;10.13;;;5.50;83.00;;;;;;6242275;28;20373;-79
2023/10/20 08:58:15;;;;;;;10.37;9.67;;;5.50;83.20;;;;;;6238998;28;20249;-78
2023/10/20 09:01:18;;;;;;;11.00;10.13;;;5.50;83.10;;;;;;6241727;28;20239;-78
2023/10/20 09:04:22;;;;;;;11.53;10.57;;;5.50;83.20;;;;;;6235454;28;20253;-79
2023/10/20 09:07:25;;;;;;;11.60;10.60;;;5.50;83.30;;;;;;6250699;28;20284;-81
2023/10/20 09:10:30;;;;;;;11.53;10.40;;;5.50;83.20;;;;;;6240331;28;20368;-82
2023/10/20 09:13:36;;;;;;;11.07;10.13;;;5.50;83.30;;;;;;6241169;28;20308;-79
2023/10/20 09:16:40;;;;;;;11.13;10.13;;;5.50;83.20;;;;;;6249007;28;20238;-79
2023/10/20 09:19:43;;;;;;;10.40;9.53;;;5.50;83.30;;;;;;6231797;28;20442;-80
2023/10/20 09:22:46;;;;;;;11.20;10.17;;;5.50;83.30;;;;;;6234227;28;20310;-80
2023/10/20 09:25:51;;;;;;;9.93;9.13;;;5.50;83.30;;;;;;6244491;28;20231;-82
2023/10/20 09:28:56;;;;;;;10.27;9.47;;;5.50;83.50;;;;;;6238819;28;20245;-79
2023/10/20 09:32:02;;;;;;;10.50;9.70;;;5.50;83.50;;;;;;6243368;28;20233;-80
2023/10/20 09:35:06;;;;;;;9.63;8.97;;;5.50;83.50;;;;;;6233466;28;20782;-79
2023/10/20 09:38:11;;;;;;;9.37;8.73;;;5.50;83.40;;;;;;6242374;28;20235;-81
2023/10/20 09:41:18;;;;;;;9.47;8.67;;;5.50;83.30;;;;;;6239475;28;20321;-81
2023/10/20 09:44:26;;;;;;;8.37;7.83;;;5.50;83.50;;;;;;6230997;28;20307;-80
2023/10/20 09:47:29;;;;;;;9.17;8.37;;;5.50;83.40;;;;;;6238053;28;20243;-80
2023/10/20 09:50:33;;;;;;;9.60;8.90;;;5.50;83.40;;;;;;6238763;28;20242;-78
2023/10/20 09:53:38;;;;;;;8.67;7.97;;;5.50;83.00;;;;;;6248536;28;20887;-80
2023/10/20 09:56:44;;;;;;;9.13;8.47;;;5.50;82.90;;;;;;6235254;28;20388;-81
2023/10/20 09:59:52;;;;;;;9.73;8.93;;;5.50;83.20;;;;;;6243020;28;20237;-81
2023/10/20 10:02:58;;;;;;;9.07;8.40;;;5.50;83.10;;;;;;6239604;28;20641;-79
2023/10/20 10:06:02;;;;;;;8.70;8.00;;;5.50;83.20;;;;;;6240070;28;20233;-79
2023/10/20 10:09:06;;;;;;;8.47;7.87;;;5.50;83.00;;;;;;6241554;28;20269;-78
2023/10/20 10:12:14;;;;;;;8.37;7.87;;;5.50;83.20;;;;;;6240280;28;20237;-79
2023/10/20 10:15:17;;;;;;;8.00;7.40;;;5.50;83.40;;;;;;6254557;28;20238;-79
2023/10/20 10:18:24;;;;;;;8.80;8.17;;;5.50;83.30;;;;;;6242773;28;20257;-78
2023/10/20 10:21:30;;;;;;;8.43;7.63;;;5.40;83.20;;;;;;6251999;28;20326;-81
2023/10/20 10:24:36;;;;;;;8.43;7.80;;;5.50;83.50;;;;;;6249967;28;20252;-79
2023/10/20 10:27:41;;;;;;;8.67;7.97;;;5.50;83.40;;;;;;6256024;28;20408;-78
2023/10/20 10:30:46;;;;;;;8.50;7.90;;;5.50;83.60;;;;;;6255359;28;20256;-80
2023/10/20 10:33:49;;;;;;;8.20;7.63;;;5.50;83.40;;;;;;6246178;28;20320;-79
2023/10/20 10:36:54;;;;;;;7.60;7.10;;;5.50;83.50;;;;;;6251039;28;21028;-79
2023/10/20 10:40:10;;;;;;;7.70;7.20;;;5.60;83.40;;;;;;6246376;28;20234;-79
2023/10/20 10:43:19;;;;;;;7.50;7.10;;;5.60;83.30;;;;;;6247633;28;20246;-79
2023/10/20 10:46:33;;;;;;;7.77;7.37;;;5.60;83.50;;;;;;6236849;28;20242;-82
2023/10/20 10:49:47;;;;;;;7.83;7.43;;;5.60;82.90;;;;;;6216588;28;20298;-79
2023/10/20 10:52:50;;;;;;;7.80;7.30;;;5.70;83.00;;;;;;6212498;28;20242;-78
2023/10/20 10:55:55;;;;;;;6.67;6.37;;;5.70;82.90;;;;;;6249293;28;20605;-79
2023/10/20 10:59:01;;;;;;;8.30;7.80;;;5.60;83.00;;;;;;6227819;28;20412;-81
2023/10/20 11:02:05;;;;;;;8.97;8.13;;;5.60;83.20;;;;;;6228407;28;20247;-79
2023/10/20 11:05:08;;;;;;;8.50;8.00;;;5.70;83.20;;;;;;6245440;28;20238;-80
2023/10/20 11:08:12;;;;;;;7.13;6.73;;;5.80;82.80;;;;;;6239620;28;20373;-81
2023/10/20 11:11:17;;;;;;;8.27;7.70;;;5.70;82.70;;;;;;6242749;28;20230;-82
2023/10/20 11:14:22;;;;;;;7.40;7.00;;;5.60;82.60;;;;;;6238066;28;20280;-79
2023/10/20 11:17:27;;;;;;;7.40;7.10;;;5.60;82.90;;;;;;6238954;28;20340;-80
2023/10/20 11:20:36;;;;;;;7.57;7.07;;;5.60;82.80;;;;;;6245687;28;20253;-81
2023/10/20 11:23:39;;;;;;;7.50;7.10;;;5.60;82.80;;;;;;6246673;28;20234;-80
2023/10/20 11:26:42;;;;;;;7.33;6.80;;;5.60;83.10;;;;;;6245158;28;20250;-81
2023/10/20 11:29:49;;;;;;;7.53;6.93;;;5.50;83.40;;;;;;6238455;28;20273;-81
2023/10/20 11:33:01;;;;;;;7.43;7.03;;;5.60;83.30;;;;;;6236959;28;20241;-80
2023/10/20 11:36:07;;;;;;;7.23;6.93;;;5.60;83.30;;;;;;6245740;28;20288;-80
2023/10/20 11:39:11;;;;;;;7.10;6.60;;;5.50;83.30;;;;;;6243778;28;20234;-82
2023/10/20 11:42:16;;;;;;;6.30;5.90;;;5.50;83.40;;;;;;6240426;28;20241;-80
2023/10/20 11:45:21;;;;;;;6.60;6.20;;;5.60;83.10;;;;;;6250073;28;20972;-79
2023/10/20 11:48:24;;;;;;;6.57;6.27;;;5.60;83.30;;;;;;6244478;28;20242;-80
2023/10/20 11:51:28;;;;;;;7.70;7.10;;;5.70;83.30;;;;;;6228150;28;20289;-82
2023/10/20 11:54:31;;;;;;;6.90;6.50;;;5.70;83.50;;;;;;6225200;28;20861;-85
2023/10/20 11:57:35;;;;;;;6.23;5.93;;;5.70;83.30;;;;;;6219701;28;20872;-81
2023/10/20 12:00:42;;;;;;;5.80;5.50;;;5.70;82.90;;;;;;6232233;28;20247;-81
2023/10/20 12:03:45;;;;;;;6.10;5.80;;;5.70;82.70;;;;;;6231812;28;20234;-81
2023/10/20 12:06:48;;;;;;;6.00;5.70;;;5.70;82.90;;;;;;6248042;28;20238;-80
2023/10/20 12:09:52;;;;;;;6.10;5.83;;;5.70;83.00;;;;;;6244296;28;20238;-79
2023/10/20 12:12:55;;;;;;;5.80;5.60;;;5.60;83.10;;;;;;6238195;28;20246;-81
2023/10/20 12:15:59;;;;;;;5.47;5.37;;;5.60;83.20;;;;;;6242979;28;20242;-82
2023/10/20 12:19:05;;;;;;;5.77;5.43;;;5.60;83.30;;;;;;6230422;28;20304;-80
2023/10/20 12:22:09;;;;;;;5.40;5.20;;;5.60;83.50;;;;;;6219938;28;20231;-80
2023/10/20 12:25:13;;;;;;;5.90;5.60;;;5.70;83.60;;;;;;6239478;28;20237;-80
2023/10/20 12:28:17;;;;;;;6.67;6.27;;;5.70;83.60;;;;;;6238675;28;20271;-80
2023/10/20 12:31:22;;;;;;;5.73;5.33;;;5.80;83.70;;;;;;6235266;28;20282;-80
2023/10/20 12:34:25;;;;;;;5.00;4.87;;;5.80;83.70;;;;;;6234810;28;20238;-81
2023/10/20 12:37:28;;;;;;;5.10;4.90;;;5.80;83.40;;;;;;6226409;28;20840;-81
2023/10/20 12:40:31;;;;;;;4.80;4.70;;;5.70;83.50;;;;;;6238548;28;20238;-81
2023/10/20 12:43:34;;;;;;;5.23;5.03;;;5.80;83.00;;;;;;6235966;28;20373;-81
2023/10/20 12:46:38;;;;;;;7.00;6.50;;;5.80;83.00;;;;;;6233935;28;20243;-80
2023/10/20 12:49:42;;;;;;;4.60;4.50;;;5.80;83.30;;;;;;6238482;28;20278;-80
2023/10/20 12:52:45;;;;;;;4.33;4.23;;;5.80;82.80;;;;;;6230684;28;20641;-78
2023/10/20 12:55:48;;;;;;;4.23;4.07;;;5.80;82.90;;;;;;6224877;28;20663;-81
2023/10/20 12:58:51;;;;;;;4.37;4.17;;;5.80;82.50;;;;;;6241179;28;20242;-81
2023/10/20 13:01:56;;;;;;;4.50;4.40;;;5.70;82.50;;;;;;6235158;28;20242;-80
2023/10/20 13:04:59;;;;;;;5.17;4.87;;;5.70;83.00;;;;;;6220187;28;20236;-79
2023/10/20 13:08:03;;;;;;;4.23;4.13;;;5.70;83.00;;;;;;6210796;28;20762;-82
2023/10/20 13:11:06;;;;;;;4.30;4.20;;;5.80;83.00;;;;;;6207770;28;20296;-83
2023/10/20 13:14:09;;;;;;;4.40;4.30;;;5.80;83.00;;;;;;6208429;28;20243;-80
2023/10/20 13:17:14;;;;;;;3.77;3.70;;;5.80;82.80;;;;;;6205377;28;20313;-80
2023/10/20 13:20:18;;;;;;;4.50;4.30;;;5.80;83.10;;;;;;6210769;28;20322;-82
2023/10/20 13:23:22;;;;;;;4.80;4.70;;;5.80;82.90;;;;;;6201378;28;20246;-79
2023/10/20 13:26:26;;;;;;;4.10;4.00;;;5.70;82.80;;;;;;6211347;28;20232;-80
2023/10/20 13:29:29;;;;;;;4.40;4.30;;;5.70;83.20;;;;;;6205528;28;20245;-81
2023/10/20 13:32:34;;;;;;;4.70;4.50;;;5.70;83.20;;;;;;6204706;28;20325;-80
2023/10/20 13:35:37;;;;;;;4.57;4.43;;;5.70;83.20;;;;;;6230147;28;20399;-80
2023/10/20 13:38:41;;;;;;;4.30;4.20;;;5.70;83.00;;;;;;6229043;28;20317;-79
2023/10/20 13:41:44;;;;;;;4.10;4.00;;;5.70;83.10;;;;;;6233755;28;21034;-82
2023/10/20 13:44:51;;;;;;;3.80;3.80;;;5.70;83.20;;;;;;6232191;28;20267;-81
2023/10/20 13:47:56;;;;;;;3.87;3.77;;;5.60;82.90;;;;;;6232729;28;20643;-79
2023/10/20 13:50:59;;;;;;;4.17;3.90;;;5.60;83.20;;;;;;6237535;28;20249;-81
2023/10/20 13:54:02;;;;;;;3.70;3.70;;;5.60;83.10;;;;;;6239102;28;20246;-82
2023/10/20 13:57:05;;;;;;;3.63;3.53;;;5.60;83.00;;;;;;6248927;28;20241;-83
2023/10/20 14:00:12;;;;;;;4.10;4.03;;;5.50;82.70;;;;;;6244344;28;20238;-80
2023/10/20 14:03:16;;;;;;;3.67;3.60;;;5.60;83.10;;;;;;6244996;28;20254;-81
2023/10/20 14:06:20;;;;;;;3.43;3.43;;;5.60;83.10;;;;;;6249968;28;20240;-80
2023/10/20 14:09:23;;;;;;;4.40;4.30;;;5.60;82.70;;;;;;6246443;28;20318;-79
2023/10/20 14:12:26;;;;;;;3.80;3.70;;;5.60;82.80;;;;;;6225409;28;20690;-80
2023/10/20 14:15:29;;;;;;;3.67;3.57;;;5.60;82.60;;;;;;6227849;28;20326;-80
2023/10/20 14:18:33;;;;;;;3.10;3.10;;;5.60;82.30;;;;;;6233637;28;20830;-81
2023/10/20 14:21:36;;;;;;;3.80;3.70;;;5.50;82.20;;;;;;6227917;28;20234;-79
2023/10/20 14:24:39;;;;;;;3.60;3.50;;;5.50;82.50;;;;;;6242338;28;20337;-79
2023/10/20 14:27:42;;;;;;;3.80;3.70;;;5.50;82.40;;;;;;6218954;28;20319;-78
2023/10/20 14:30:53;;;;;;;3.80;3.60;;;5.50;82.70;;;;;;6229337;28;20757;-75
2023/10/20 14:33:59;;;;;;;3.90;3.80;;;5.50;82.90;;;;;;6222756;28;20326;-75
2023/10/20 14:37:03;;;;;;;4.00;3.90;;;5.50;83.20;;;;;;6232652;28;20230;-76
2023/10/20 14:40:09;;;;;;;4.07;3.80;;;5.40;83.20;;;;;;6234953;28;20237;-75
2023/10/20 14:43:13;;;;;;;3.60;3.60;;;5.40;83.40;;;;;;6239846;28;20234;-77
2023/10/20 14:46:16;;;;;;;3.77;3.70;;;5.40;83.60;;;;;;6246075;28;20245;-80
2023/10/20 14:49:21;;;;;;;3.33;3.33;;;5.50;83.60;;;;;;6233926;28;20242;-82
2023/10/20 14:52:24;;;;;;;4.23;4.13;;;5.50;83.70;;;;;;6247620;28;20246;-81
2023/10/20 14:55:28;;;;;;;3.60;3.60;;;5.40;83.70;;;;;;6244584;28;20246;-79
2023/10/20 14:58:31;;;;;;;3.70;3.60;;;5.40;83.30;;;;;;6233268;28;20233;-79
2023/10/20 15:01:34;;;;;;;3.87;3.77;;;5.40;83.40;;;;;;6237734;28;20802;-78
2023/10/20 15:04:39;;;;;;;3.80;3.80;;;5.40;83.50;;;;;;6253549;28;20335;-80
2023/10/20 15:07:42;;;;;;;3.83;3.73;;;5.40;83.50;;;;;;6234953;28;20272;-80
2023/10/20 15:10:45;;;;;;;3.50;3.40;;;5.30;83.10;;;;;;6232996;28;20777;-79
2023/10/20 15:13:49;;;;;;;3.93;3.73;;;5.30;83.20;;;;;;6246888;28;20923;-79
2023/10/20 15:16:52;;;;;;;3.60;3.50;;;5.30;83.30;;;;;;6233473;28;20247;-78
2023/10/20 15:19:59;;;;;;;3.40;3.37;;;5.20;82.90;;;;;;6240692;28;20239;-79
2023/10/20 15:23:03;;;;;;;4.50;4.30;;;5.10;82.80;;;;;;6239838;28;20782;-78
2023/10/20 15:26:19;;;;;;;3.60;3.40;;;5.00;83.00;;;;;;6242728;28;20268;-80
2023/10/20 15:29:22;;;;;;;3.60;3.40;;;5.00;82.80;;;;;;6234725;28;20650;-80
2023/10/20 15:32:25;;;;;;;3.43;3.40;;;5.00;82.80;;;;;;6241188;28;20871;-80
2023/10/20 15:35:31;;;;;;;3.47;3.37;;;5.00;82.80;;;;;;6239859;28;20239;-81
2023/10/20 15:38:35;;;;;;;3.60;3.40;;;5.00;83.00;;;;;;6235829;28;20230;-77
2023/10/20 15:41:38;;;;;;;3.37;3.27;;;5.00;83.00;;;;;;6236948;28;20313;-79
2023/10/20 15:44:41;;;;;;;3.40;3.30;;;5.00;82.80;;;;;;6235022;28;20246;-79
2023/10/20 15:47:44;;;;;;;3.90;3.80;;;5.00;82.90;;;;;;6239574;28;20814;-80
2023/10/20 15:50:49;;;;;;;3.53;3.43;;;4.90;82.90;;;;;;6237204;28;20326;-80
2023/10/20 15:53:52;;;;;;;3.80;3.70;;;4.90;83.30;;;;;;6235697;28;20239;-79
2023/10/20 15:56:56;;;;;;;3.83;3.73;;;4.90;83.30;;;;;;6239463;28;20245;-79
2023/10/20 15:59:59;;;;;;;3.97;3.87;;;5.00;83.20;;;;;;6230255;28;20235;-80
2023/10/20 16:03:04;;;;;;;4.00;3.90;;;5.00;83.10;;;;;;6239109;28;20239;-78
2023/10/20 16:06:11;;;;;;;3.67;3.47;;;5.00;82.80;;;;;;6230914;28;20246;-78
2023/10/20 16:09:14;;;;;;;4.00;3.90;;;5.00;82.90;;;;;;6225779;28;20677;-81
2023/10/20 16:12:21;;;;;;;3.50;3.40;;;4.90;82.90;;;;;;6234867;28;20726;-80
2023/10/20 16:15:24;;;;;;;3.90;3.80;;;4.90;83.00;;;;;;6236530;28;20245;-80
2023/10/20 16:18:27;;;;;;;4.30;4.20;;;4.90;83.10;;;;;;6240064;28;20258;-81